Lamar, South Carolina
Current Conditions -  °F | °C
As of 2:53 AM on Monday 24 Nov 2014 (Local Time) from KFLO Reporting Station
Overcast Overcast  
Wind Chill: 64°   Ceiling: 1600
Heat Index: 64°   Visibility: 10mi
Dew Point: 62°   Wind: 5mph
Humidity: 93%   Direction: 190°S
Pressure: 29.8"   Gusts: NA
Location:  34.17°N, 80.06°W
Report Text: KFLO 240753Z AUTO 19004KT 10SM OVC016 18/17 A2980 RMK AO2 SLP089 T01780167
Loading
Personal Weather Stations






























Interactive Weather Map New forecast layout! Learn more

10-Day Weather Forecast

Advertisements
Track Severe Weather on mobile